• Join FlightAware (Why Join?)
  • Login
  • US Flag 
08:11AM EDT


 

Airport Tracker/Info


-or-


 

Live Flight TrackerFlight Track Log ✈ N668DN ✈ 24-Apr-2013 ✈ KDTW - KSEA

Flight Track Log - Related Links

Times and Time Zones

All times are in EDT time to prevent confusion due to time zone crossing. See the N668DN flight status page for this flight to view local times or setup timezone preferences in your user account.

Time Position Orientation Groundspeed Altitude Reporting Facility
EDT Latitude Longitude Course Direction KTS MPH feet Rate Location/Type
09:06AM 42.2314 -83.3342 275° West 167 192 1,400  Level Cleveland Center
09:07AM 42.2711 -83.3219 13° North 199 229 3,200 2,100 Climbing Cleveland Center
09:08AM 42.3386 -83.2967 15° North 265 305 5,300 2,160 Climbing Cleveland Center
09:09AM 42.4144 -83.2633 18° North 308 354 7,600 2,280 Climbing Cleveland Center
09:10AM 42.3528 -83.9371 292° West  Level FlightAware Approximate
09:10AM 42.4892 -83.2694 357° North 297 342 9,800  Level Cleveland Center
09:11AM 42.3962 -84.0818 292° West  Level FlightAware Approximate
09:11AM 42.5192 -83.3300 304° West 293 337 10,000  Level Cleveland Center
09:12AM 42.4200 -84.2324 275° West  Level FlightAware Approximate
09:12AM 42.5103 -83.4367 264° West 274 315 10,000  Level Cleveland Center
09:13AM 42.4969 -83.5486 261° West 279 321 10,000  Level Cleveland Center
09:14AM 42.4858 -83.6550 262° West 284 327 10,000 1,320 Level Cleveland Center
09:15AM 42.4722 -83.7756 261° West 295 339 12,700 2,640 Climbing Cleveland Center
09:16AM 42.4608 -83.8792 262° West 290 334 15,300 1,860 Climbing Cleveland Center
09:17AM 42.4492 -83.9967 262° West 302 348 16,500 1,680 Climbing Cleveland Center
09:18AM 42.4328 -84.1253 260° West 326 375 18,700 2,100 Climbing Cleveland Center
09:19AM 42.4267 -84.2544 266° West 341 392 20,800 1,920 Climbing Cleveland Center
09:20AM 42.4306 -84.3869 272° West 346 398 22,600 1,320 Climbing Cleveland Center
09:22AM 42.4381 -84.5933 273° West 370 426 24,400 1,200 Climbing Chicago Center
09:23AM 42.4425 -84.7700 272° West 389 448 25,900 1,320 Climbing Chicago Center
09:24AM 42.4456 -84.9186 272° West 396 456 27,200 1,200 Climbing Chicago Center
09:25AM 42.4489 -85.0719 272° West 405 466 28,400 1,500 Climbing Chicago Center
09:26AM 42.4522 -85.2253 272° West 407 468 30,300 1,620 Climbing Chicago Center
09:27AM 42.4544 -85.3739 271° West 399 459 31,800 1,860 Climbing Chicago Center
09:28AM 42.4575 -85.5161 272° West 385 443 34,200 1,740 Climbing Chicago Center
09:29AM 42.4589 -85.6483 271° West 357 411 35,400 840 Climbing Chicago Center
09:30AM 42.4625 -85.8094 272° West 356 410 36,000 240 Climbing Chicago Center
09:31AM 42.4636 -85.9417 271° West 352 405 36,000  Level Chicago Center
09:32AM 42.4653 -86.0778 271° West 360 414 36,000  Level Chicago Center
09:33AM 42.5006 -86.2194 289° West 402 463 36,000  Level Chicago Center
09:34AM 42.5444 -86.3597 293° West 405 466 36,000  Level Chicago Center
09:35AM 42.5883 -86.5014 293° West 406 467 36,000  Level Chicago Center
09:36AM 42.6478 -86.6389 300° West 433 498 36,000  Level Chicago Center
09:37AM 42.7522 -86.7897 313° West 453 521 36,000  Level Chicago Center
09:38AM 42.8411 -86.9150 314° West 456 525 36,000  Level Chicago Center
09:39AM 42.9297 -87.0356 315° West 451 519 36,000  Level Chicago Center
09:40AM 43.0189 -87.1567 315° West 451 519 36,000  Level Chicago Center
09:41AM 43.1083 -87.2756 316° Northwest 449 517 36,000  Level Chicago Center
09:42AM 43.1861 -87.4181 307° West 417 480 36,000  Level Chicago Center
09:43AM 43.2264 -87.5594 291° West 395 455 36,000  Level Chicago Center
09:44AM 43.2558 -87.7028 286° West 391 450 36,000  Level Chicago Center
09:45AM 43.3136 -87.8672 296° West 415 478 36,000  Level Chicago Center
09:46AM 43.3639 -88.0089 296° West 413 475 36,000  Level Chicago Center
09:47AM 43.4128 -88.1519 295° West 413 475 36,000  Level Chicago Center
09:49AM 43.4644 -88.2922 297° West 414 476 36,000  Level Chicago Center
09:50AM 43.5239 -88.4531 297° West 416 479 36,000  Level Chicago Center
09:51AM 43.5722 -88.5950 295° West 416 479 36,000  Level Chicago Center
09:52AM 43.6247 -88.7400 297° West 421 484 36,000  Level Chicago Center
09:52AM 43.6419 -88.7872 297° West 421 484 36,000  Level Minneapolis Center
09:53AM 43.6775 -88.8867 296° West 426 490 36,000  Level Chicago Center
09:53AM 43.6950 -88.9350 297° West 427 491 36,000  Level Minneapolis Center
09:54AM 43.7564 -89.1075 296° West 429 494 36,000  Level Minneapolis Center
09:55AM 43.8078 -89.2586 295° West 432 497 36,000  Level Minneapolis Center
09:56AM 43.8608 -89.4067 296° West 430 495 36,000  Level Minneapolis Center
09:57AM 43.9131 -89.5567 296° West 432 497 36,000  Level Minneapolis Center
09:58AM 43.9642 -89.7069 295° West 431 496 36,000  Level Minneapolis Center
09:59AM 44.0153 -89.8564 295° West 430 495 36,000 120 Level Minneapolis Center
10:00AM 44.0758 -90.0311 296° West 430 495 36,300 720 Climbing Minneapolis Center
10:01AM 44.1261 -90.1833 295° West 423 487 37,500 780 Climbing Minneapolis Center
10:02AM 44.1753 -90.3300 295° West 420 483 38,000 240 Climbing Minneapolis Center
10:03AM 44.2258 -90.4783 295° West 422 486 38,000  Level Minneapolis Center
10:04AM 44.2789 -90.6336 296° West 421 484 38,000  Level Minneapolis Center
10:05AM 44.3269 -90.7775 295° West 430 495 38,000  Level Minneapolis Center
10:06AM 44.3850 -90.9519 295° West 435 501 38,000  Level Minneapolis Center
10:07AM 44.4344 -91.1058 294° West 436 502 38,000  Level Minneapolis Center
10:08AM 44.4858 -91.2583 295° West 436 502 38,000  Level Minneapolis Center
10:09AM 44.5353 -91.4125 294° West 435 501 38,000  Level Minneapolis Center
10:11AM 44.5750 -91.5350 295° West 436 502 38,000  Level Minneapolis Center
10:12AM 44.6236 -91.6869 294° West 431 496 38,000  Level Minneapolis Center
10:13AM 44.6917 -91.9019 294° West 432 497 38,000  Level Minneapolis Center
10:14AM 44.7408 -92.0536 295° West 430 495 38,000  Level Minneapolis Center
10:15AM 44.7886 -92.2053 294° West 428 493 38,000  Level Minneapolis Center
10:16AM 44.8358 -92.3581 294° West 427 491 38,000  Level Minneapolis Center
10:17AM 44.8736 -92.4803 294° West 429 494 38,000  Level Minneapolis Center
10:18AM 44.9389 -92.6928 294° West 426 490 38,000  Level Minneapolis Center
10:19AM 44.9850 -92.8431 293° West 422 486 38,000  Level Minneapolis Center
10:20AM 45.0314 -92.9925 294° West 422 486 38,000  Level Minneapolis Center
10:21AM 45.0767 -93.1433 293° West 424 488 38,000  Level Minneapolis Center
10:22AM 45.1217 -93.2953 293° West 423 487 38,000  Level Minneapolis Center
10:23AM 45.1672 -93.4800 289° West 420 483 38,000  Level Minneapolis Center
10:24AM 45.1989 -93.6367 286° West 418 481 38,000  Level Minneapolis Center
10:25AM 45.2317 -93.7939 287° West 419 482 38,000  Level Minneapolis Center
10:26AM 45.2636 -93.9492 286° West 415 478 38,000  Level Minneapolis Center
10:27AM 45.2958 -94.1047 286° West 413 475 38,000  Level Minneapolis Center
10:28AM 45.3333 -94.2917 286° West 414 476 38,000  Level Minneapolis Center
10:29AM 45.3650 -94.4478 286° West 414 476 38,000  Level Minneapolis Center
10:30AM 45.3950 -94.6033 285° West 411 473 38,000  Level Minneapolis Center
10:31AM 45.4300 -94.7611 288° West 416 479 38,000  Level Minneapolis Center
10:32AM 45.4614 -94.9211 286° West 420 483 38,000  Level Minneapolis Center
10:33AM 45.4975 -95.1167 285° West 425 489 38,000  Level Minneapolis Center
10:34AM 45.5294 -95.2775 286° West 425 489 38,000  Level Minneapolis Center
10:35AM 45.5625 -95.4394 286° West 426 490 38,000  Level Minneapolis Center
10:36AM 45.5872 -95.6058 282° West 427 491 38,000  Level Minneapolis Center
10:37AM 45.6192 -95.7675 286° West 423 487 38,000  Level Minneapolis Center
10:38AM 45.6481 -95.9289 284° West 420 483 38,000  Level Minneapolis Center
10:39AM 45.6844 -96.1228 285° West 421 484 38,000  Level Minneapolis Center
10:40AM 45.7089 -96.2625 284° West 421 484 38,000  Level Minneapolis Center
10:41AM 45.7442 -96.4569 285° West 420 483 38,000  Level Minneapolis Center
10:43AM 45.7667 -96.5864 284° West 418 481 38,000  Level Minneapolis Center
10:44AM 45.8019 -96.7811 285° West 421 484 38,000  Level Minneapolis Center
10:45AM 45.8294 -96.9425 284° West 417 480 38,000  Level Minneapolis Center
10:46AM 45.8606 -97.1022 286° West 418 481 38,000  Level Minneapolis Center
10:47AM 45.8875 -97.2669 283° West 422 486 38,000  Level Minneapolis Center
10:48AM 45.9206 -97.4661 283° West 426 490 38,000  Level Minneapolis Center
10:49AM 45.9425 -97.5975 284° West 426 490 38,000  Level Minneapolis Center
10:50AM 45.9761 -97.7986 284° West 427 491 38,000  Level Minneapolis Center
10:51AM 46.0039 -97.9697 283° West 433 498 38,000  Level Minneapolis Center
10:52AM 46.0306 -98.1317 283° West 430 495 38,000  Level Minneapolis Center
10:53AM 46.0625 -98.3306 283° West 427 491 38,000  Level Minneapolis Center
10:54AM 46.0883 -98.4950 283° West 425 489 38,000  Level Minneapolis Center
10:55AM 46.1142 -98.6617 283° West 422 486 38,000  Level Minneapolis Center
10:56AM 46.1406 -98.8261 283° West 421 484 38,000  Level Minneapolis Center
10:57AM 46.1653 -98.9886 282° West 417 480 38,000  Level Minneapolis Center
10:58AM 46.1900 -99.1508 282° West 416 479 38,000  Level Minneapolis Center
10:59AM 46.2181 -99.3419 282° West 416 479 38,000  Level Minneapolis Center
11:00AM 46.2425 -99.5061 282° West 418 481 38,000  Level Minneapolis Center
11:02AM 46.2714 -99.7008 282° West 417 480 38,000  Level Minneapolis Center
11:03AM 46.3011 -99.8997 282° West 422 486 38,000  Level Minneapolis Center
11:04AM 46.3253 -100.0669 282° West 424 488 38,000  Level Minneapolis Center
11:05AM 46.3469 -100.2258 281° West 412 474 38,000  Level Minneapolis Center
11:06AM 46.3747 -100.4222 282° West 414 476 38,000  Level Minneapolis Center
11:07AM 46.3983 -100.5867 282° West 417 480 38,000  Level Minneapolis Center
11:08AM 46.4200 -100.7522 281° West 419 482 38,000  Level Minneapolis Center
11:09AM 46.4436 -100.9186 282° West 421 484 38,000  Level Minneapolis Center
11:10AM 46.4656 -101.0850 281° West 422 486 38,000  Level Minneapolis Center
11:11AM 46.4886 -101.2500 282° West 420 483 38,000  Level Minneapolis Center
11:12AM 46.5128 -101.4578 280° West 431 496 38,000  Level Minneapolis Center
11:13AM 46.5353 -101.6219 281° West 422 486 38,000  Level Minneapolis Center
11:14AM 46.5553 -101.7697 281° West 422 486 38,000  Level Minneapolis Center
11:15AM 46.5772 -101.9364 281° West 421 484 38,000  Level Minneapolis Center
11:16AM 46.6033 -102.1364 281° West 421 484 38,000  Level Minneapolis Center
11:17AM 46.6264 -102.3036 281° West 422 486 38,000  Level Minneapolis Center
11:18AM 46.6472 -102.4706 280° West 422 486 38,000  Level Minneapolis Center
11:19AM 46.6675 -102.6406 280° West 424 488 38,000  Level Minneapolis Center
11:20AM 46.6869 -102.8125 279° West 428 493 38,000  Level Minneapolis Center
11:21AM 46.7006 -102.9506 278° West 427 491 38,000  Level Salt Lake Center
11:22AM 46.7200 -103.1225 279° West 428 493 38,000  Level Salt Lake Center
11:23AM 46.7428 -103.3292 279° West 429 494 38,000  Level Salt Lake Center
11:24AM 46.7622 -103.4972 280° West 427 491 38,000  Level Salt Lake Center
11:25AM 46.7819 -103.6669 280° West 426 490 38,000  Level Salt Lake Center
11:26AM 46.8000 -103.8383 279° West 426 490 38,000  Level Salt Lake Center
11:27AM 46.8183 -104.0114 279° West 428 493 38,000  Level Salt Lake Center
11:28AM 46.8364 -104.1800 279° West 425 489 38,000  Level Salt Lake Center
11:29AM 46.8544 -104.3536 279° West 428 493 38,000  Level Salt Lake Center
11:30AM 46.8753 -104.5589 279° West 427 491 38,000  Level Salt Lake Center
11:31AM 46.8931 -104.7297 279° West 426 490 38,000  Level Salt Lake Center
11:32AM 46.9092 -104.8997 278° West 423 487 38,000  Level Salt Lake Center
11:33AM 46.9256 -105.0708 278° West 425 489 38,000  Level Salt Lake Center
11:34AM 46.9431 -105.2442 278° West 429 494 38,000  Level Salt Lake Center
11:35AM 46.9603 -105.4156 278° West 427 491 38,000  Level Salt Lake Center
11:36AM 46.9789 -105.6183 278° West 423 487 38,000  Level Salt Lake Center
11:37AM 46.9947 -105.7869 278° West 420 483 38,000  Level Salt Lake Center
11:38AM 47.0103 -105.9539 278° West 416 479 38,000  Level Salt Lake Center
11:40AM 47.0244 -106.1219 277° West 417 480 38,000  Level Salt Lake Center
11:41AM 47.0389 -106.2908 277° West 417 480 38,000  Level Salt Lake Center
11:42AM 47.0567 -106.4878 278° West 422 486 38,000  Level Salt Lake Center
11:43AM 47.0703 -106.6506 277° West 423 487 38,000  Level Salt Lake Center
11:44AM 47.0867 -106.8425 277° West 425 489 38,000  Level Salt Lake Center
11:45AM 47.0989 -107.0069 276° West 425 489 38,000  Level Salt Lake Center
11:46AM 47.1150 -107.1997 277° West 427 491 38,000  Level Salt Lake Center
11:47AM 47.1264 -107.3647 276° West 425 489 38,000  Level Salt Lake Center
11:48AM 47.1414 -107.5578 277° West 427 491 38,000  Level Salt Lake Center
11:49AM 47.1533 -107.7239 276° West 428 493 38,000  Level Salt Lake Center
11:50AM 47.1683 -107.9153 277° West 424 488 38,000  Level Salt Lake Center
11:51AM 47.1794 -108.0806 276° West 424 488 38,000  Level Salt Lake Center
11:52AM 47.1922 -108.2728 276° West 424 488 38,000  Level Salt Lake Center
11:53AM 47.2033 -108.4367 276° West 423 487 38,000  Level Salt Lake Center
11:54AM 47.2142 -108.6025 276° West 425 489 38,000  Level Salt Lake Center
11:55AM 47.2272 -108.8014 276° West 424 488 38,000  Level Salt Lake Center
11:56AM 47.2358 -108.9508 275° West 426 490 38,000  Level Salt Lake Center
11:57AM 47.2486 -109.1561 275° West 422 486 38,000  Level Salt Lake Center
11:58AM 47.2586 -109.3286 275° West 425 489 38,000  Level Salt Lake Center
11:59AM 47.2689 -109.4997 275° West 421 484 38,000  Level Salt Lake Center
12:00PM 47.2783 -109.6714 275° West 422 486 38,000  Level Salt Lake Center
12:01PM 47.2878 -109.8436 275° West 423 487 38,000  Level Salt Lake Center
12:02PM 47.2975 -110.0150 275° West 421 484 38,000  Level Salt Lake Center
12:03PM 47.3072 -110.2189 274° West 419 482 38,000  Level Salt Lake Center
12:04PM 47.3169 -110.3867 275° West 413 475 38,000  Level Salt Lake Center
12:05PM 47.3250 -110.5572 274° West 416 479 38,000  Level Salt Lake Center
12:06PM 47.3328 -110.7281 274° West 417 480 38,000  Level Salt Lake Center
12:07PM 47.3408 -110.8983 274° West 416 479 38,000  Level Salt Lake Center
12:08PM 47.3489 -111.0722 274° West 421 484 38,000  Level Salt Lake Center
12:09PM 47.3561 -111.2469 274° West 423 487 38,000  Level Salt Lake Center
12:11PM 47.3633 -111.4244 274° West 427 491 38,000  Level Salt Lake Center
12:12PM 47.3717 -111.6339 273° West 425 489 38,000  Level Salt Lake Center
12:14PM 47.3858 -111.9861 274° West 431 496 38,000  Level Salt Lake Center
12:15PM 47.3900 -112.1586 272° West 424 488 38,000  Level Salt Lake Center
12:16PM 47.3961 -112.3331 273° West 426 490 38,000  Level Salt Lake Center
12:17PM 47.4017 -112.5083 273° West 427 491 38,000  Level Salt Lake Center
12:18PM 47.4078 -112.6828 273° West 427 491 38,000  Level Salt Lake Center
12:19PM 47.4131 -112.8922 272° West 428 493 38,000  Level Salt Lake Center
12:20PM 47.4186 -113.0667 273° West 433 498 38,000  Level Salt Lake Center
12:21PM 47.4225 -113.2417 272° West 427 491 38,000  Level Salt Lake Center
12:22PM 47.4264 -113.4169 272° West 429 494 38,000  Level Salt Lake Center
12:23PM 47.4308 -113.5928 272° West 430 495 38,000  Level Salt Lake Center
12:24PM 47.4344 -113.7686 272° West 428 493 38,000  Level Salt Lake Center
12:25PM 47.4383 -113.9783 272° West 426 490 38,000  Level Salt Lake Center
12:26PM 47.4406 -114.1497 271° West 419 482 38,000  Level Salt Lake Center
12:27PM 47.4439 -114.3231 272° West 421 484 38,000  Level Salt Lake Center
12:28PM 47.4461 -114.4972 271° West 422 486 38,000  Level Salt Lake Center
12:29PM 47.4486 -114.6742 271° West 429 494 38,000  Level Salt Lake Center
12:30PM 47.4508 -114.7794 272° West 426 490 38,000  Level Seattle Center
12:31PM 47.4525 -114.9567 271° West 429 494 38,000  Level Seattle Center
12:32PM 47.4544 -115.1322 271° West 428 493 38,000  Level Seattle Center
12:33PM 47.4550 -115.3103 270° West 432 497 38,000  Level Seattle Center
12:34PM 47.4564 -115.4919 271° West 441 507 38,000  Level Seattle Center
12:35PM 47.4586 -115.6731 271° West 442 509 38,000  Level Seattle Center
12:36PM 47.4694 -115.8536 275° West 437 503 38,000  Level Seattle Center
12:37PM 47.4800 -116.0303 275° West 434 499 38,000  Level Seattle Center
12:38PM 47.4919 -116.2428 275° West 432 497 38,000  Level Seattle Center
12:39PM 47.5019 -116.4203 275° West 434 499 38,000  Level Seattle Center
12:40PM 47.5125 -116.5972 275° West 433 498 38,000  Level Seattle Center
12:41PM 47.5217 -116.7736 274° West 432 497 38,000  Level Seattle Center
12:42PM 47.5322 -116.9519 275° West 433 498 38,000  Level Seattle Center
12:43PM 47.5394 -117.1258 274° West 431 496 38,000  Level Seattle Center
12:44PM 47.5500 -117.3181 275° West 432 497 38,000  Level Seattle Center
12:45PM 47.5592 -117.4967 274° West 434 499 38,000  Level Seattle Center
12:46PM 47.5692 -117.6758 275° West 438 504 38,000  Level Seattle Center
12:47PM 47.5869 -117.8508 279° West 433 498 38,000  Level Seattle Center
12:48PM 47.6033 -118.0286 278° West 435 501 38,000  Level Seattle Center
12:50PM 47.6260 -118.2771 278° West  Level FlightAware Approximate
12:50PM 47.6367 -118.3822 278° West 435 501 38,000  Level Seattle Center
12:51PM 47.6522 -118.5603 277° West 436 502 38,000  Level Seattle Center
12:52PM 47.6689 -118.7356 278° West 431 496 38,000  Level Seattle Center
12:53PM 47.6822 -118.9108 277° West 431 496 38,000  Level Seattle Center
12:54PM 47.6972 -119.0856 277° West 428 493 38,000  Level Seattle Center
12:55PM 47.7125 -119.2597 277° West 427 491 38,000 -60 Level Seattle Center
12:56PM 47.7267 -119.4336 277° West 427 491 37,900  Descending Seattle Center
12:57PM 47.7444 -119.6414 277° West 424 488 38,000  Climbing Seattle Center
12:58PM 47.7547 -119.8169 275° West 426 490 38,000  Level Seattle Center
12:59PM 47.7694 -119.9922 277° West 428 493 38,000  Level Seattle Center
01:00PM 47.7825 -120.1683 276° West 430 495 38,000 -240 Level Seattle Center
01:01PM 47.7942 -120.3461 276° West 432 497 37,600 -1,680 Descending Seattle Center
01:02PM 47.8103 -120.5225 278° West 434 499 34,700 -3,120 Descending Seattle Center
01:03PM 47.8219 -120.7053 275° West 443 510 31,300 -3,060 Descending Seattle Center
01:04PM 47.8367 -120.8964 277° West 447 514 28,500 -2,700 Descending Seattle Center
01:05PM 47.8447 -121.0422 275° West 436 502 26,400 -2,580 Descending Seattle Center
01:06PM 47.8589 -121.2400 276° West 411 473 23,600 -2,640 Descending Seattle Center
01:07PM 47.8681 -121.4039 275° West 399 459 20,800 -2,580 Descending Seattle Center
01:08PM 47.8772 -121.5678 275° West 396 456 18,400 -1,620 Descending Seattle Center
01:09PM 47.8625 -121.7353 263° West 360 414 17,400 -1,320 Descending Seattle Center
01:10PM 47.7892 -121.8361 223° Southwest 354 407 15,600 -1,980 Descending Seattle Center
01:11PM 47.7203 -121.9281 222° Southwest 338 389 13,500 -2,400 Descending Seattle Center
01:12PM 47.6564 -122.0167 223° Southwest 318 366 10,900 -1,800 Descending Seattle Center
01:13PM 47.5997 -122.0911 222° Southwest 293 337 10,100 -420 Descending Seattle Center
01:14PM 47.5325 -122.1681 218° Southwest 255 293 10,100 -540 Level Seattle Center
01:15PM 47.4644 -122.1631 177° South 234 269 9,000 -1,140 Descending Seattle Center
01:16PM 47.3964 -122.1581 177° South 244 281 7,900 -1,020 Descending Seattle Center
01:17PM 47.3358 -122.1558 179° South 238 274 7,100 -600 Descending Seattle Center
01:18PM 47.2678 -122.1508 177° South 238 274 6,800 -660 Descending Seattle Center
01:19PM 47.2100 -122.1858 202° Southwest 228 262 5,800 -900 Descending Seattle Center
01:20PM 47.1644 -122.2339 216° Southwest 204 235 5,000 -480 Descending Seattle Center
01:21PM 47.1886 -122.3022 298° West 190 219 4,900 -540 Descending Seattle Center
01:22PM 47.2394 -122.3100 354° North 188 216 4,000 -960 Descending Seattle Center
01:23PM 47.2864 -122.3106 360° North 176 203 3,100 -1,020 Descending Seattle Center